createdAt,value
2022-10-09T00:01:23.386Z,82.75
2022-10-09T00:03:53.282Z,82.44
2022-10-09T00:06:23.191Z,82.17
2022-10-09T00:08:53.071Z,82.23
2022-10-09T00:11:24.707Z,82.21
2022-10-09T00:13:54.789Z,82.10
2022-10-09T00:16:24.105Z,82.09
2022-10-09T00:18:53.068Z,82.38
2022-10-09T00:21:23.972Z,82.15
2022-10-09T00:23:55.478Z,82.26
2022-10-09T00:26:24.758Z,82.24
2022-10-09T00:28:53.299Z,82.40
2022-10-09T00:31:22.095Z,82.37
2022-10-09T00:33:50.646Z,82.49
2022-10-09T00:36:21.659Z,82.65
2022-10-09T00:38:50.577Z,82.70
2022-10-09T00:41:21.954Z,82.76
2022-10-09T00:43:51.494Z,82.85
2022-10-09T00:46:28.978Z,82.97
2022-10-09T00:49:03.414Z,83.04
2022-10-09T00:51:33.308Z,82.91
2022-10-09T00:54:04.029Z,82.85
2022-10-09T00:56:34.905Z,82.77
2022-10-09T00:59:04.446Z,82.78
2022-10-09T01:01:32.790Z,82.96
2022-10-09T01:04:01.051Z,82.81
2022-10-09T01:06:43.874Z,82.87
2022-10-09T01:09:15.954Z,83.00
2022-10-09T01:11:53.033Z,83.13
2022-10-09T01:14:27.242Z,83.20
2022-10-09T01:17:02.871Z,83.12
2022-10-09T01:19:51.180Z,83.26
2022-10-09T01:22:40.694Z,83.39
2022-10-09T01:25:11.485Z,83.29
2022-10-09T01:27:42.106Z,83.37
2022-10-09T01:30:13.282Z,83.26
2022-10-09T01:32:47.442Z,83.41
2022-10-09T01:35:16.765Z,83.49
2022-10-09T01:37:47.777Z,83.55
2022-10-09T01:40:18.031Z,83.51
2022-10-09T01:42:48.037Z,83.64
2022-10-09T01:45:16.938Z,83.48
2022-10-09T01:47:45.170Z,83.40
2022-10-09T01:50:22.874Z,83.53
2022-10-09T01:52:53.231Z,83.55
2022-10-09T01:55:31.478Z,83.56
2022-10-09T01:58:09.190Z,83.48
2022-10-09T02:00:44.497Z,83.51
2022-10-09T02:03:14.602Z,83.51
2022-10-09T02:05:45.501Z,83.58
2022-10-09T02:08:15.843Z,83.74
2022-10-09T02:10:49.607Z,83.72
2022-10-09T02:13:19.554Z,83.90
2022-10-09T02:15:51.598Z,83.68
2022-10-09T02:18:25.901Z,83.66
2022-10-09T02:21:00.684Z,83.79
2022-10-09T02:23:30.151Z,83.78
2022-10-09T02:25:59.047Z,83.64
2022-10-09T02:28:28.821Z,83.64
2022-10-09T02:31:03.119Z,83.97
2022-10-09T02:33:35.328Z,83.90
2022-10-09T02:36:04.591Z,83.87
2022-10-09T02:38:32.896Z,83.95
2022-10-09T02:41:02.259Z,83.90
2022-10-09T02:43:31.790Z,83.99
2022-10-09T02:46:00.004Z,83.97
2022-10-09T02:48:28.226Z,83.95
2022-10-09T02:50:56.460Z,83.94
2022-10-09T02:53:24.691Z,83.96
2022-10-09T02:55:55.467Z,84.09
2022-10-09T02:58:26.238Z,84.55
2022-10-09T03:00:56.515Z,84.39
2022-10-09T03:03:24.745Z,84.02
2022-10-09T03:06:01.204Z,83.90
2022-10-09T03:08:29.747Z,83.98
2022-10-09T03:10:58.381Z,83.99
2022-10-09T03:13:26.526Z,84.05
2022-10-09T03:15:56.284Z,84.13
2022-10-09T03:18:24.443Z,84.17
2022-10-09T03:20:52.636Z,84.17
2022-10-09T03:23:20.874Z,84.22
2022-10-09T03:25:57.320Z,84.13
2022-10-09T03:28:26.033Z,84.09
2022-10-09T03:30:54.482Z,84.05
2022-10-09T03:33:24.124Z,84.01
2022-10-09T03:35:52.440Z,84.10
2022-10-09T03:38:20.585Z,84.22
2022-10-09T03:40:48.833Z,84.16
2022-10-09T03:43:16.991Z,84.19
2022-10-09T03:45:45.346Z,84.23
2022-10-09T03:48:14.403Z,84.32
2022-10-09T03:50:44.575Z,84.49
2022-10-09T03:53:14.250Z,84.46
2022-10-09T03:55:42.825Z,84.46
2022-10-09T03:58:11.881Z,84.55
2022-10-09T04:00:40.271Z,84.61
2022-10-09T04:03:08.449Z,84.45
2022-10-09T04:05:36.692Z,84.27
2022-10-09T04:08:06.309Z,84.40
2022-10-09T04:10:34.743Z,84.48
2022-10-09T04:13:02.933Z,84.32
2022-10-09T04:15:31.137Z,84.32
2022-10-09T04:17:59.377Z,84.19
2022-10-09T04:20:27.593Z,84.29
2022-10-09T04:22:55.753Z,84.40
2022-10-09T04:25:25.258Z,84.46
2022-10-09T04:27:53.497Z,84.46
2022-10-09T04:30:21.612Z,84.35
2022-10-09T04:32:50.005Z,84.39
2022-10-09T04:35:18.505Z,84.41
2022-10-09T04:37:46.707Z,84.51
2022-10-09T04:40:14.918Z,84.57
2022-10-09T04:42:44.875Z,84.64
2022-10-09T04:45:13.106Z,84.67
2022-10-09T04:47:41.337Z,84.67
2022-10-09T04:50:10.652Z,84.79
2022-10-09T04:52:39.549Z,84.77
2022-10-09T04:55:08.592Z,84.88
2022-10-09T04:57:36.770Z,84.85
2022-10-09T05:00:07.507Z,84.80
2022-10-09T05:02:35.905Z,84.81
2022-10-09T05:05:04.448Z,84.90
2022-10-09T05:07:32.730Z,84.81
2022-10-09T05:10:01.014Z,84.74
2022-10-09T05:12:29.214Z,84.42
2022-10-09T05:14:57.479Z,84.50
2022-10-09T05:17:27.814Z,84.71
2022-10-09T05:19:56.473Z,84.71
2022-10-09T05:22:24.900Z,84.75
2022-10-09T05:24:53.172Z,84.85
2022-10-09T05:27:21.811Z,84.78
2022-10-09T05:29:50.007Z,84.74
2022-10-09T05:32:18.259Z,84.81
2022-10-09T05:34:47.711Z,84.80
2022-10-09T05:37:16.018Z,84.77
2022-10-09T05:39:45.159Z,84.85
2022-10-09T05:42:13.354Z,84.81
2022-10-09T05:44:41.827Z,84.87
2022-10-09T05:47:09.933Z,84.97
2022-10-09T05:49:38.085Z,85.08
2022-10-09T05:52:07.589Z,85.04
2022-10-09T05:54:35.847Z,85.00
2022-10-09T05:57:04.798Z,85.06
2022-10-09T05:59:35.600Z,85.06
2022-10-09T06:02:04.286Z,84.95
2022-10-09T06:04:32.523Z,84.93
2022-10-09T06:07:00.696Z,85.01
2022-10-09T06:09:30.478Z,84.81
2022-10-09T06:11:58.723Z,84.67
2022-10-09T06:14:26.827Z,84.63
2022-10-09T06:16:55.386Z,84.59
2022-10-09T06:19:23.567Z,84.63
2022-10-09T06:21:51.967Z,84.61
2022-10-09T06:24:28.727Z,84.36
2022-10-09T06:26:59.393Z,84.19
2022-10-09T06:29:27.771Z,84.03
2022-10-09T06:31:56.142Z,83.97
2022-10-09T06:34:24.580Z,83.84
2022-10-09T06:36:52.859Z,83.70
2022-10-09T06:39:21.217Z,83.48
2022-10-09T06:41:52.059Z,83.24
2022-10-09T06:44:44.476Z,83.08
2022-10-09T06:47:12.626Z,82.94
2022-10-09T06:49:43.152Z,82.59
2022-10-09T06:52:11.355Z,82.48
2022-10-09T06:54:39.604Z,82.29
2022-10-09T06:57:07.740Z,82.01
2022-10-09T06:59:35.890Z,81.97
2022-10-09T07:02:05.566Z,81.75
2022-10-09T07:04:33.788Z,81.61
2022-10-09T07:07:02.878Z,81.49
2022-10-09T07:09:31.105Z,81.28
2022-10-09T07:11:59.399Z,81.17
2022-10-09T07:14:27.761Z,80.94
2022-10-09T07:16:56.344Z,80.83
2022-10-09T07:19:25.867Z,80.72
2022-10-09T07:21:54.231Z,80.69
2022-10-09T07:24:24.633Z,80.68
2022-10-09T07:26:55.176Z,80.61
2022-10-09T07:29:26.012Z,80.31
2022-10-09T07:31:54.236Z,80.23
2022-10-09T07:34:22.699Z,79.98
2022-10-09T07:36:52.280Z,79.91
2022-10-09T07:39:20.529Z,79.82
2022-10-09T07:41:51.610Z,79.52
2022-10-09T07:44:19.905Z,79.49
2022-10-09T07:46:50.224Z,79.54
2022-10-09T07:49:18.430Z,79.28
2022-10-09T07:51:46.545Z,79.05
2022-10-09T07:54:16.266Z,78.81
2022-10-09T07:56:44.507Z,78.98
2022-10-09T07:59:14.974Z,79.07
2022-10-09T08:01:43.629Z,78.43
2022-10-09T08:04:11.966Z,78.23
2022-10-09T08:06:40.514Z,77.83
2022-10-09T08:09:09.911Z,77.41
2022-10-09T08:11:41.123Z,77.56
2022-10-09T08:14:16.598Z,77.93
2022-10-09T08:16:47.553Z,77.98
2022-10-09T08:19:15.862Z,77.66
2022-10-09T08:21:44.015Z,77.88
2022-10-09T08:24:13.131Z,77.59
2022-10-09T08:26:44.244Z,77.84
2022-10-09T08:29:13.991Z,77.24
2022-10-09T08:31:42.540Z,76.53
2022-10-09T08:34:12.086Z,76.88
2022-10-09T08:36:40.739Z,76.53
2022-10-09T08:39:09.018Z,76.35
2022-10-09T08:41:45.849Z,75.99
2022-10-09T08:44:18.614Z,76.01
2022-10-09T08:46:54.404Z,75.75
2022-10-09T08:49:28.597Z,75.73
2022-10-09T08:51:58.424Z,75.82
2022-10-09T08:54:34.311Z,75.44
2022-10-09T08:57:10.924Z,75.20
2022-10-09T08:59:39.231Z,75.11
2022-10-09T09:02:36.846Z,74.68
2022-10-09T09:05:25.966Z,75.02
2022-10-09T09:08:00.824Z,73.83
2022-10-09T09:10:38.128Z,73.77
2022-10-09T09:13:21.639Z,74.34
2022-10-09T09:15:56.800Z,74.92
2022-10-09T09:18:42.560Z,74.58
2022-10-09T09:21:23.354Z,74.21
2022-10-09T09:23:51.719Z,73.96
2022-10-09T09:26:22.412Z,72.46
2022-10-09T09:29:03.017Z,73.32
2022-10-09T09:31:37.078Z,72.88
2022-10-09T09:34:11.981Z,72.29
2022-10-09T09:36:45.957Z,73.41
2022-10-09T09:42:14.303Z,72.54
2022-10-09T09:44:48.976Z,72.93
2022-10-09T09:47:22.711Z,72.14
2022-10-09T09:49:55.426Z,72.41
2022-10-09T09:52:24.235Z,72.61
2022-10-09T09:54:52.461Z,72.23
2022-10-09T09:57:30.763Z,72.77
2022-10-09T10:00:18.717Z,71.96
2022-10-09T10:02:47.456Z,71.38
2022-10-09T10:05:19.344Z,70.82
2022-10-09T10:07:50.074Z,72.31
2022-10-09T10:10:25.019Z,72.14
2022-10-09T10:12:59.063Z,71.10
2022-10-09T10:15:30.543Z,71.77
2022-10-09T10:18:04.041Z,70.84
2022-10-09T10:20:35.072Z,69.79
2022-10-09T10:23:03.332Z,70.39
2022-10-09T10:25:34.685Z,70.14
2022-10-09T10:28:07.037Z,69.53
2022-10-09T10:30:38.142Z,69.23
2022-10-09T10:33:13.115Z,70.13
2022-10-09T10:35:44.419Z,69.12
2022-10-09T10:38:16.680Z,70.07
2022-10-09T10:40:50.576Z,69.97
2022-10-09T10:43:33.388Z,68.87
2022-10-09T10:46:10.242Z,67.89
2022-10-09T10:48:41.756Z,70.00
2022-10-09T10:51:27.577Z,68.23
2022-10-09T10:54:08.015Z,67.54
2022-10-09T10:56:41.027Z,64.49
2022-10-09T10:59:26.521Z,66.85
2022-10-09T11:02:23.942Z,68.49
2022-10-09T11:04:57.069Z,68.76
2022-10-09T11:07:31.575Z,68.12
2022-10-09T11:10:10.413Z,67.37
2022-10-09T11:12:48.406Z,68.35
2022-10-09T11:15:24.541Z,68.48
2022-10-09T11:18:04.262Z,67.47
2022-10-09T11:20:52.964Z,67.60
2022-10-09T11:23:29.626Z,68.59
2022-10-09T11:26:02.745Z,67.94
2022-10-09T11:28:38.652Z,69.15
2022-10-09T11:31:14.758Z,66.14
2022-10-09T11:33:48.079Z,67.27
2022-10-09T11:36:21.387Z,66.80
2022-10-09T11:38:54.099Z,66.11
2022-10-09T11:41:22.777Z,68.60
2022-10-09T11:44:00.905Z,67.15
2022-10-09T11:46:42.824Z,68.76
2022-10-09T11:49:21.970Z,65.27
2022-10-09T11:51:57.115Z,68.45
2022-10-09T11:54:27.607Z,67.53
2022-10-09T11:56:58.578Z,65.43
2022-10-09T11:59:30.344Z,67.33
2022-10-09T12:01:59.902Z,67.26
2022-10-09T12:05:03.179Z,66.70
2022-10-09T12:07:30.933Z,65.97
2022-10-09T12:10:03.599Z,66.94
2022-10-09T12:12:32.755Z,65.27
2022-10-09T12:15:12.600Z,64.02
2022-10-09T12:17:49.857Z,66.65
2022-10-09T12:20:24.744Z,68.48
2022-10-09T12:23:24.742Z,64.76
2022-10-09T12:25:47.508Z,66.14
2022-10-09T12:28:26.953Z,68.36
2022-10-09T12:30:56.760Z,66.69
2022-10-09T12:33:29.106Z,68.69
2022-10-09T12:36:06.782Z,68.70
2022-10-09T12:38:35.024Z,65.85
2022-10-09T12:41:08.273Z,70.46
2022-10-09T12:43:36.548Z,67.73
2022-10-09T12:46:04.959Z,66.91
2022-10-09T12:48:38.989Z,69.49
2022-10-09T12:51:17.697Z,65.10
2022-10-09T12:53:50.792Z,68.65
2022-10-09T12:56:23.040Z,66.33
2022-10-09T12:58:52.317Z,66.62
2022-10-09T13:01:21.403Z,68.49
2022-10-09T13:03:57.425Z,64.51
2022-10-09T13:06:29.346Z,64.95
2022-10-09T13:09:00.507Z,66.19
2022-10-09T13:11:37.225Z,65.46
2022-10-09T13:14:06.071Z,65.17
2022-10-09T13:16:41.985Z,65.07
2022-10-09T13:19:24.203Z,63.98
2022-10-09T13:22:19.965Z,66.04
2022-10-09T13:24:51.035Z,89.68
2022-10-09T13:27:20.081Z,97.78
2022-10-09T13:29:48.603Z,99.32
2022-10-09T13:32:18.363Z,101.31
2022-10-09T13:34:47.604Z,103.34
2022-10-09T13:37:20.168Z,102.68
2022-10-09T13:39:48.623Z,104.60
2022-10-09T13:42:18.179Z,103.38
2022-10-09T13:44:46.492Z,103.15
2022-10-09T13:47:14.717Z,109.57
2022-10-09T13:49:43.077Z,102.51
2022-10-09T13:52:11.307Z,106.79
2022-10-09T13:54:40.801Z,105.11
2022-10-09T13:57:09.445Z,105.86
2022-10-09T13:59:38.004Z,103.30
2022-10-09T14:02:06.851Z,102.67
2022-10-09T14:04:35.105Z,102.12
2022-10-09T14:07:03.422Z,109.11
2022-10-09T14:09:31.800Z,105.53
2022-10-09T14:12:01.476Z,104.15
2022-10-09T14:14:29.720Z,101.58
2022-10-09T14:16:57.987Z,100.27
2022-10-09T14:19:27.870Z,100.06
2022-10-09T14:21:56.820Z,101.97
2022-10-09T14:24:25.756Z,100.86
2022-10-09T14:26:54.134Z,100.86
2022-10-09T14:29:23.717Z,102.43
2022-10-09T14:31:52.438Z,99.39
2022-10-09T14:34:20.831Z,100.40
2022-10-09T14:36:49.003Z,95.71
2022-10-09T14:39:17.420Z,94.79
2022-10-09T14:41:45.870Z,92.32
2022-10-09T14:44:14.341Z,93.63
2022-10-09T14:46:44.131Z,92.80
2022-10-09T14:49:12.890Z,92.11
2022-10-09T14:51:42.196Z,93.82
2022-10-09T14:54:11.982Z,92.30
2022-10-09T14:56:40.470Z,90.24
2022-10-09T14:59:08.752Z,90.69
2022-10-09T15:01:37.189Z,93.44
2022-10-09T15:04:07.415Z,93.28
2022-10-09T15:06:36.753Z,99.24
2022-10-09T15:09:06.287Z,102.18
2022-10-09T15:11:36.827Z,101.00
2022-10-09T15:14:05.988Z,102.99
2022-10-09T15:16:34.410Z,104.12
2022-10-09T15:19:04.973Z,107.59
2022-10-09T15:21:36.402Z,104.45
2022-10-09T15:24:05.577Z,106.93
2022-10-09T15:26:35.789Z,104.89
2022-10-09T15:29:05.008Z,104.39
2022-10-09T15:31:35.609Z,103.86
2022-10-09T15:34:04.754Z,104.34
2022-10-09T15:36:36.024Z,105.66
2022-10-09T15:39:07.304Z,105.56
2022-10-09T15:41:38.017Z,103.75
2022-10-09T15:44:07.551Z,106.41
2022-10-09T15:46:38.179Z,107.35
2022-10-09T15:49:07.730Z,107.24
2022-10-09T15:51:37.480Z,105.98
2022-10-09T15:54:06.054Z,105.30
2022-10-09T15:56:39.724Z,106.02
2022-10-09T15:59:11.363Z,108.44
2022-10-09T16:01:39.605Z,109.30
2022-10-09T16:04:07.916Z,109.46
2022-10-09T16:06:37.728Z,109.49
2022-10-09T16:09:06.030Z,111.42
2022-10-09T16:11:34.738Z,109.09
2022-10-09T16:14:04.368Z,110.08
2022-10-09T16:16:32.752Z,109.65
2022-10-09T16:19:03.386Z,112.14
2022-10-09T16:21:31.655Z,111.23
2022-10-09T16:24:01.791Z,112.03
2022-10-09T16:26:30.780Z,112.12
2022-10-09T16:29:01.105Z,112.84
2022-10-09T16:31:31.309Z,113.21
2022-10-09T16:33:59.935Z,112.59
2022-10-09T16:36:28.333Z,113.07
2022-10-09T16:38:57.582Z,112.83
2022-10-09T16:41:27.508Z,112.62
2022-10-09T16:43:57.437Z,113.45
2022-10-09T16:46:27.837Z,113.28
2022-10-09T16:48:58.042Z,113.86
2022-10-09T16:51:28.741Z,114.68
2022-10-09T16:53:59.546Z,115.54
2022-10-09T16:56:33.020Z,115.16
2022-10-09T16:59:05.186Z,114.58
2022-10-09T17:01:36.161Z,113.22
2022-10-09T17:04:05.927Z,115.44
2022-10-09T17:06:34.166Z,115.57
2022-10-09T17:09:02.855Z,115.24
2022-10-09T17:11:32.553Z,115.07
2022-10-09T17:14:01.380Z,115.57
2022-10-09T17:16:32.051Z,114.59
2022-10-09T17:19:01.520Z,114.34
2022-10-09T17:21:34.150Z,113.58
2022-10-09T17:24:05.259Z,112.64
2022-10-09T17:26:35.275Z,111.96
2022-10-09T17:29:04.917Z,111.45
2022-10-09T17:31:33.403Z,108.96
2022-10-09T17:34:03.827Z,110.96
2022-10-09T17:36:35.302Z,109.20
2022-10-09T17:39:04.581Z,108.46
2022-10-09T17:41:34.105Z,107.98
2022-10-09T17:44:02.493Z,110.50
2022-10-09T17:46:31.601Z,108.67
2022-10-09T17:49:01.212Z,111.04
2022-10-09T17:51:31.614Z,112.08
2022-10-09T17:54:02.746Z,112.58
2022-10-09T17:56:34.132Z,112.94
2022-10-09T17:59:03.456Z,112.71
2022-10-09T18:01:31.989Z,106.87
2022-10-09T18:04:00.299Z,110.91
2022-10-09T18:06:29.080Z,111.78
2022-10-09T18:08:58.377Z,110.49
2022-10-09T18:11:28.492Z,109.51
2022-10-09T18:13:58.660Z,103.57
2022-10-09T18:16:35.435Z,106.15
2022-10-09T18:19:07.793Z,101.77
2022-10-09T18:21:36.310Z,103.66
2022-10-09T18:24:07.088Z,104.66
2022-10-09T18:26:35.475Z,105.83
2022-10-09T18:29:06.149Z,106.76
2022-10-09T18:31:34.437Z,107.02
2022-10-09T18:34:03.081Z,109.42
2022-10-09T18:36:33.770Z,109.97
2022-10-09T18:39:04.718Z,109.97
2022-10-09T18:41:33.370Z,110.81
2022-10-09T18:44:02.584Z,110.33
2022-10-09T18:46:35.691Z,109.50
2022-10-09T18:49:09.166Z,110.42
2022-10-09T18:51:39.114Z,110.61
2022-10-09T18:54:14.398Z,109.39
2022-10-09T18:56:45.534Z,111.33
2022-10-09T18:59:17.539Z,110.64
2022-10-09T19:01:47.206Z,110.26
2022-10-09T19:04:15.915Z,109.01
2022-10-09T19:06:44.209Z,108.69
2022-10-09T19:09:12.421Z,110.07
2022-10-09T19:11:41.236Z,109.84
2022-10-09T19:14:09.514Z,111.05
2022-10-09T19:16:37.761Z,111.64
2022-10-09T19:19:07.687Z,110.66
2022-10-09T19:21:36.478Z,110.32
2022-10-09T19:24:06.269Z,111.13
2022-10-09T19:26:35.361Z,111.26
2022-10-09T19:29:04.429Z,109.66
2022-10-09T19:31:33.803Z,110.04
2022-10-09T19:34:02.813Z,109.39
2022-10-09T19:36:34.470Z,104.88
2022-10-09T19:39:03.131Z,109.48
2022-10-09T19:41:31.551Z,104.51
2022-10-09T19:44:00.037Z,108.81
2022-10-09T19:46:29.522Z,108.47
2022-10-09T19:48:57.865Z,109.47
2022-10-09T19:51:27.551Z,104.05
2022-10-09T19:53:59.091Z,108.21
2022-10-09T19:56:29.475Z,106.50
2022-10-09T19:58:58.678Z,106.97
2022-10-09T20:01:28.028Z,106.21
2022-10-09T20:03:58.099Z,105.41
2022-10-09T20:06:26.516Z,105.56
2022-10-09T20:08:56.651Z,104.54
2022-10-09T20:11:26.570Z,104.45
2022-10-09T20:13:56.612Z,105.26
2022-10-09T20:16:25.812Z,105.93
2022-10-09T20:18:56.293Z,105.41
2022-10-09T20:21:24.559Z,104.40
2022-10-09T20:23:52.907Z,103.30
2022-10-09T20:26:23.022Z,101.43
2022-10-09T20:28:53.845Z,99.86
2022-10-09T20:31:24.283Z,99.14
2022-10-09T20:33:54.607Z,98.26
2022-10-09T20:36:28.718Z,97.55
2022-10-09T20:38:58.299Z,96.41
2022-10-09T20:41:29.033Z,95.93
2022-10-09T20:44:00.032Z,95.74
2022-10-09T20:46:30.014Z,94.78
2022-10-09T20:48:58.793Z,93.85
2022-10-09T20:51:27.328Z,92.63
2022-10-09T20:53:56.850Z,91.16
2022-10-09T20:56:28.438Z,91.13
2022-10-09T20:58:57.587Z,91.44
2022-10-09T21:01:27.960Z,90.74
2022-10-09T21:03:57.209Z,91.27
2022-10-09T21:06:27.643Z,91.87
2022-10-09T21:08:55.952Z,91.78
2022-10-09T21:11:25.167Z,92.58
2022-10-09T21:13:54.894Z,93.07
2022-10-09T21:16:24.668Z,92.75
2022-10-09T21:18:56.409Z,93.53
2022-10-09T21:21:25.286Z,93.44
2022-10-09T21:23:55.777Z,92.51
2022-10-09T21:26:25.109Z,92.77
2022-10-09T21:28:59.273Z,90.37
2022-10-09T21:31:30.075Z,90.94
2022-10-09T21:33:59.903Z,89.49
2022-10-09T21:36:35.526Z,88.21
2022-10-09T21:39:05.602Z,87.60
2022-10-09T21:41:34.333Z,86.88
2022-10-09T21:44:04.762Z,86.56
2022-10-09T21:46:33.518Z,85.80
2022-10-09T21:49:06.764Z,85.26
2022-10-09T21:51:35.798Z,85.11
2022-10-09T21:54:03.947Z,84.02
2022-10-09T21:56:34.170Z,82.61
2022-10-09T21:59:03.692Z,82.40
2022-10-09T22:01:32.310Z,81.95
2022-10-09T22:04:00.611Z,81.75
2022-10-09T22:06:28.868Z,81.48
2022-10-09T22:08:57.388Z,81.31
2022-10-09T22:11:25.672Z,81.16
2022-10-09T22:13:53.867Z,81.10
2022-10-09T22:16:24.516Z,80.78
2022-10-09T22:18:52.844Z,80.81
2022-10-09T22:21:22.861Z,80.87
2022-10-09T22:23:51.438Z,80.80
2022-10-09T22:26:22.242Z,80.64
2022-10-09T22:28:50.806Z,81.02
2022-10-09T22:31:21.313Z,80.63
2022-10-09T22:33:53.230Z,80.69
2022-10-09T22:36:23.936Z,80.51
2022-10-09T22:38:55.132Z,80.47
2022-10-09T22:41:24.287Z,80.42
2022-10-09T22:43:54.386Z,80.41
2022-10-09T22:46:24.640Z,80.43
2022-10-09T22:48:54.592Z,80.29
2022-10-09T22:51:25.217Z,80.29
2022-10-09T22:53:53.368Z,80.35
2022-10-09T22:56:24.178Z,80.01
2022-10-09T22:58:53.704Z,80.43
2022-10-09T23:01:30.112Z,80.41
2022-10-09T23:04:00.986Z,80.56
2022-10-09T23:06:29.498Z,80.41
2022-10-09T23:08:58.198Z,80.23
2022-10-09T23:11:27.609Z,80.24
2022-10-09T23:13:56.889Z,80.31
2022-10-09T23:16:26.412Z,80.17
2022-10-09T23:18:56.021Z,79.98
2022-10-09T23:21:27.470Z,79.97
2022-10-09T23:23:57.038Z,80.20
2022-10-09T23:26:27.847Z,80.23
2022-10-09T23:28:58.392Z,80.25
2022-10-09T23:31:27.430Z,80.11
2022-10-09T23:33:56.732Z,80.78
2022-10-09T23:36:29.186Z,80.40
2022-10-09T23:38:58.273Z,80.30
2022-10-09T23:41:29.210Z,79.85
2022-10-09T23:43:57.863Z,80.08
2022-10-09T23:46:29.167Z,80.12
2022-10-09T23:48:57.733Z,80.24
2022-10-09T23:51:28.370Z,80.17
2022-10-09T23:53:56.656Z,80.14
2022-10-09T23:56:26.839Z,80.14
2022-10-09T23:58:56.570Z,80.20
